Currently 67°F in Beaumont, California, USA
67°F
86°F / 64°F
calm
0.00"
Saturday, July 21, 2018 11:50 PM PDT

Beaumont, California Weather Summary
Last 36 Hours

Temperature Winds Hourly Humidity Dewpoint
Time Report Norm Report Norm Max Gusts Precip. Rpt. Norm Rpt. Norm Pressure
1Sat 11:50 PM  67.3°F  69°F  calm  1 mph  5 mph  0.00"  64%  55%  54°F  52°F  29.91"
Sat 11:00 PM  68.7°F  70°F  calm  1 mph  6 mph  0.00"  61%  53%  54°F  52°F  29.91"
Sat 10:00 PM  70.3°F  72°F  calm  2 mph  7 mph  0.00"  63%  51%  57°F  52°F  29.91"
Sat 09:00 PM  73.8°F  75°F  2 mph S  3 mph  12 mph  0.00"  53%  47%  55°F  53°F  29.88"
Sat 08:00 PM  77.0°F  77°F  4 mph NW  3 mph  17 mph  0.00"  49%  45%  56°F  53°F  29.85"
Sat 07:00 PM  81.0°F  80°F  4 mph W  3 mph  14 mph  0.00"  45%  41%  57°F  54°F  29.83"
Sat 06:00 PM  84.9°F  84°F  2 mph SW  4 mph  14 mph  0.00"  41%  36%  58°F  54°F  29.83"
Sat 05:00 PM  85.8°F  86°F  2 mph NW  4 mph  12 mph  0.00"  39%  33%  57°F  53°F  29.82"
2Sat 04:46 PM  86.4°F  87°F  2 mph W  4 mph  12 mph  ----  40%  33%  58°F  53°F  29.82"
Sat 04:00 PM  85.8°F  87°F  1 mph W  4 mph  12 mph  0.00"  40%  32%  58°F  53°F  29.83"
Sat 03:00 PM  85.5°F  87°F  2 mph SW  4 mph  15 mph  0.00"  40%  32%  58°F  53°F  29.84"
Sat 02:00 PM  82.6°F  87°F  5 mph S  4 mph  21 mph  0.00"  43%  33%  57°F  53°F  29.86"
Sat 01:00 PM  82.8°F  86°F  12 mph E  5 mph  20 mph  0.00"  42%  34%  57°F  53°F  29.88"
Sat 12:00 PM  80.4°F  84°F  6 mph E  4 mph  24 mph  0.00"  49%  37%  59°F  54°F  29.88"
Sat 11:00 AM  78.6°F  82°F  16 mph S  4 mph  18 mph  0.00"  50%  39%  58°F  54°F  29.88"
Sat 10:00 AM  76.3°F  79°F  calm  4 mph  13 mph  0.00"  50%  41%  56°F  53°F  29.88"
Sat 09:00 AM  73.0°F  77°F  3 mph SW  3 mph  12 mph  0.00"  54%  44%  55°F  53°F  29.87"
Sat 08:00 AM  69.3°F  74°F  calm  2 mph  7 mph  0.00"  60%  48%  54°F  52°F  29.86"
Sat 07:00 AM  65.3°F  70°F  calm  1 mph  8 mph  0.00"  65%  51%  53°F  51°F  29.84"
Sat 06:00 AM  65.1°F  68°F  2 mph NW  1 mph  9 mph  0.00"  64%  53%  52°F  49°F  29.83"
Sat 05:00 AM  66.2°F  68°F  calm  1 mph  8 mph  0.00"  66%  53%  54°F  50°F  29.83"
Sat 04:00 AM  66.0°F  68°F  calm  1 mph  8 mph  0.00"  66%  53%  54°F  50°F  29.83"
Sat 03:00 AM  65.8°F  68°F  2 mph W  1 mph  5 mph  0.00"  67%  55%  54°F  51°F  29.84"
3Sat 02:22 AM  63.9°F  68°F  calm  1 mph  none  ----  71%  55%  54°F  51°F  29.84"
Sat 02:00 AM  64.2°F  68°F  calm  1 mph  3 mph  0.00"  70%  55%  54°F  51°F  29.83"
Sat 01:00 AM  65.1°F  68°F  calm  1 mph  3 mph  0.00"  68%  56%  54°F  51°F  29.84"
Sat 12:00 AM  66.7°F  68°F  calm  1 mph  none  0.00"  66%  55%  55°F  51°F  29.84"
Fri 11:00 PM  68.4°F  70°F  calm  1 mph  1 mph  0.00"  63%  53%  55°F  52°F  29.84"
Fri 10:00 PM  70.9°F  72°F  calm  2 mph  13 mph  0.00"  60%  51%  56°F  52°F  29.83"
Fri 09:00 PM  71.6°F  74°F  5 mph NW  3 mph  13 mph  0.00"  59%  47%  56°F  52°F  29.81"
Fri 08:00 PM  73.8°F  77°F  calm  3 mph  9 mph  0.00"  57%  45%  57°F  53°F  29.80"
Fri 07:00 PM  76.1°F  80°F  3 mph NW  3 mph  13 mph  0.00"  55%  41%  58°F  54°F  29.80"
Fri 06:00 PM  79.0°F  84°F  4 mph W  4 mph  12 mph  0.00"  51%  35%  59°F  53°F  29.78"
Fri 05:00 PM  81.3°F  86°F  3 mph W  4 mph  15 mph  0.00"  48%  33%  59°F  53°F  29.79"
Fri 04:00 PM  82.2°F  87°F  4 mph S  4 mph  13 mph  0.00"  48%  31%  60°F  52°F  29.78"
Fri 03:00 PM  83.7°F  87°F  4 mph NW  4 mph  15 mph  0.00"  47%  31%  61°F  52°F  29.79"
Fri 02:00 PM  82.6°F  87°F  2 mph W  4 mph  13 mph  0.00"  49%  33%  61°F  53°F  29.81"
Fri 01:11 PM  81.1°F  86°F  3 mph SW  5 mph  12 mph  0.00"  51%  34%  61°F  53°F  29.82"
Fri 12:00 PM  79.9°F  84°F  calm  5 mph  15 mph  0.00"  54%  36%  61°F  54°F  29.83"

  1. Current weather data. No green row appears if the current weather data is also the high or low for the current day.
  2. High temperature for the current day.
  3. Low temperature for the current day.

The Beaumont, California weather pages are a service of WeatherCurrents. Cherry Valley is located in northern Riverside County, California, a community of the northern part of Beaumont, along the Interstate 10 highway, in the San Gorgonio pass area, between the communities of Calimesa, Banning.
Copyright ©Sat Jul 21 23:53:33 PDT 2018  WeatherCurrents. All rights reserved. - Submit questions and comments - Privacy Policy

This page automatically refreshes every 10 minutes.